Time;durP1;ratioP1;P1;durP2;ratioP2;P2;SDS_P1;SDS_P2;PMS_P1;PMS_P2;Temp;Humidity;BMP_temperature;BMP_pressure;BME280_temperature;BME280_humidity;BME280_pressure;Samples;Min_cycle;Max_cycle;Signal;HPM_P1;HPM_P2
2022/07/31 00:01:52;;;;;;;276.02;252.20;;;20.70;76.30;;;;;;5094332;28;20048;-76
2022/07/31 00:04:22;;;;;;;252.05;230.35;;;20.70;76.20;;;;;;5071792;28;20052;-76
2022/07/31 00:06:49;;;;;;;273.52;249.77;;;20.70;76.10;;;;;;5065850;28;20144;-77
2022/07/31 00:09:16;;;;;;;223.32;203.85;;;20.70;75.90;;;;;;5088516;28;20049;-76
2022/07/31 00:11:43;;;;;;;240.88;219.98;;;20.60;75.90;;;;;;5076959;28;20060;-77
2022/07/31 00:14:11;;;;;;;242.57;221.57;;;20.60;76.00;;;;;;5083640;28;20060;-77
2022/07/31 00:16:38;;;;;;;167.00;152.60;;;20.60;76.10;;;;;;5081100;28;20056;-77
2022/07/31 00:19:05;;;;;;;203.65;185.75;;;20.50;76.10;;;;;;5085108;28;20656;-76
2022/07/31 00:21:33;;;;;;;248.45;226.77;;;20.50;76.50;;;;;;5080251;28;20049;-76
2022/07/31 00:24:00;;;;;;;252.57;230.63;;;20.40;76.70;;;;;;5085621;28;20060;-77
2022/07/31 00:26:27;;;;;;;239.95;218.93;;;20.40;76.60;;;;;;5089522;28;20048;-77
2022/07/31 00:28:54;;;;;;;212.02;193.57;;;20.40;76.60;;;;;;5064249;28;20526;-77
2022/07/31 00:31:21;;;;;;;228.10;208.30;;;20.30;76.70;;;;;;5073398;28;20048;-77
2022/07/31 00:33:47;;;;;;;277.30;253.30;;;20.30;76.80;;;;;;5071726;28;20056;-77
2022/07/31 00:36:14;;;;;;;248.88;227.05;;;20.30;76.90;;;;;;5067754;28;20054;-77
2022/07/31 00:38:42;;;;;;;303.65;277.02;;;20.30;77.00;;;;;;5080536;28;20124;-77
2022/07/31 00:41:10;;;;;;;243.30;221.40;;;20.20;76.90;;;;;;5083256;28;20146;-77
2022/07/31 00:43:37;;;;;;;228.73;208.38;;;20.20;77.00;;;;;;5060844;28;20406;-77
2022/07/31 00:46:09;;;;;;;230.07;209.82;;;20.20;77.00;;;;;;5089246;28;20503;-77
2022/07/31 00:48:36;;;;;;;241.88;220.60;;;20.10;77.00;;;;;;5069601;28;20045;-77
2022/07/31 00:51:04;;;;;;;264.40;241.15;;;20.10;77.20;;;;;;5060679;28;20041;-77
2022/07/31 00:53:30;;;;;;;235.10;214.40;;;20.10;77.40;;;;;;5079317;28;20056;-77
2022/07/31 00:55:59;;;;;;;208.18;189.77;;;20.10;77.40;;;;;;5071621;28;20135;-77
2022/07/31 00:58:26;;;;;;;245.13;223.27;;;20.10;77.40;;;;;;5078067;28;20652;-77
2022/07/31 01:00:53;;;;;;;232.63;211.90;;;20.10;77.40;;;;;;5083435;28;20052;-77
2022/07/31 01:03:20;;;;;;;220.55;200.95;;;20.10;77.40;;;;;;5081702;27;20526;-77
2022/07/31 01:05:47;;;;;;;212.45;193.77;;;20.10;77.40;;;;;;5070699;28;20538;-77
2022/07/31 01:08:14;;;;;;;202.98;184.88;;;20.10;77.40;;;;;;5067926;28;20136;-77
2022/07/31 01:10:48;;;;;;;195.13;177.88;;;20.00;77.40;;;;;;5060939;28;20499;-77
2022/07/31 01:13:24;;;;;;;166.20;151.30;;;20.00;77.60;;;;;;5061474;28;20064;-77
2022/07/31 01:15:53;;;;;;;180.52;164.48;;;20.00;77.40;;;;;;5076918;28;20056;-77
2022/07/31 01:18:22;;;;;;;181.27;165.27;;;20.00;77.70;;;;;;5078432;28;20053;-77
2022/07/31 01:20:50;;;;;;;163.07;149.10;;;20.00;77.60;;;;;;5068840;28;20055;-77
2022/07/31 01:23:30;;;;;;;173.55;157.95;;;19.90;77.60;;;;;;5069098;28;21668;-77
2022/07/31 01:26:37;;;;;;;224.10;203.88;;;19.90;77.70;;;;;;5074012;28;20041;-77
2022/07/31 01:29:15;;;;;;;173.65;158.15;;;19.90;77.50;;;;;;5085598;28;20045;-77
2022/07/31 01:31:47;;;;;;;184.75;168.23;;;19.90;77.70;;;;;;5082897;28;20067;-77
2022/07/31 01:34:23;;;;;;;206.70;188.32;;;19.90;77.90;;;;;;5087776;28;20099;-77
2022/07/31 01:37:01;;;;;;;271.48;246.88;;;19.90;78.00;;;;;;5074274;28;20057;-77
2022/07/31 01:39:32;;;;;;;295.95;269.40;;;19.90;77.90;;;;;;5087976;28;20128;-77
2022/07/31 01:42:02;;;;;;;265.10;241.70;;;19.90;78.30;;;;;;5082156;28;20056;-77
2022/07/31 01:44:34;;;;;;;286.02;260.58;;;19.90;78.10;;;;;;5064809;28;20041;-77
2022/07/31 01:47:02;;;;;;;258.25;234.88;;;19.90;78.00;;;;;;5065620;28;20102;-77
2022/07/31 01:49:31;;;;;;;255.95;233.13;;;19.90;77.90;;;;;;5078034;28;20049;-77
2022/07/31 01:52:00;;;;;;;266.27;242.85;;;19.80;78.00;;;;;;5084423;28;20783;-77
2022/07/31 01:54:28;;;;;;;258.42;235.18;;;19.80;78.30;;;;;;5065630;28;20891;-77
2022/07/31 01:56:58;;;;;;;217.63;197.85;;;19.70;78.50;;;;;;5064364;28;20049;-77
2022/07/31 01:59:26;;;;;;;258.60;235.40;;;19.70;78.70;;;;;;5081190;28;20088;-77
2022/07/31 02:02:15;;;;;;;252.32;229.65;;;19.70;79.00;;;;;;5066138;28;20060;-77
2022/07/31 02:04:42;;;;;;;211.32;192.35;;;19.70;79.30;;;;;;5068979;28;20103;-77
2022/07/31 02:07:10;;;;;;;208.70;190.07;;;19.70;79.30;;;;;;5060255;28;20059;-77
2022/07/31 02:09:38;;;;;;;198.55;180.65;;;19.70;79.10;;;;;;5090472;28;20049;-77
2022/07/31 02:12:07;;;;;;;239.02;217.52;;;19.70;79.10;;;;;;5090165;28;20052;-77
2022/07/31 02:14:35;;;;;;;274.42;249.93;;;19.70;79.00;;;;;;5061182;28;20045;-77
2022/07/31 02:17:03;;;;;;;242.13;220.63;;;19.70;79.00;;;;;;5077770;28;20142;-77
2022/07/31 02:19:52;;;;;;;196.95;179.30;;;19.70;79.10;;;;;;5073287;28;20102;-77
2022/07/31 02:22:20;;;;;;;217.55;197.95;;;19.70;79.20;;;;;;5076936;28;20824;-77
2022/07/31 02:24:46;;;;;;;219.77;199.77;;;19.60;79.10;;;;;;5092395;27;20508;-77
2022/07/31 02:27:15;;;;;;;272.67;248.23;;;19.60;79.30;;;;;;5075802;28;20102;-77
2022/07/31 02:29:43;;;;;;;247.05;224.93;;;19.60;79.40;;;;;;5057306;28;20052;-77
2022/07/31 02:32:13;;;;;;;193.38;176.25;;;19.60;79.50;;;;;;5076997;28;20045;-77
2022/07/31 02:34:42;;;;;;;187.18;170.82;;;19.60;79.60;;;;;;5097411;28;20060;-78
2022/07/31 02:37:13;;;;;;;182.95;166.75;;;19.60;79.80;;;;;;5076072;28;20052;-77
2022/07/31 02:39:42;;;;;;;244.55;222.50;;;19.60;79.80;;;;;;5065549;28;20073;-77
2022/07/31 02:42:10;;;;;;;198.73;180.82;;;19.60;79.90;;;;;;5090689;28;20056;-77
2022/07/31 02:44:39;;;;;;;281.05;256.02;;;19.60;80.20;;;;;;5092582;28;20129;-77
2022/07/31 02:47:06;;;;;;;188.90;172.25;;;19.50;80.60;;;;;;5089082;28;20053;-77
2022/07/31 02:49:34;;;;;;;195.98;178.38;;;19.50;80.60;;;;;;5062221;28;20554;-77
2022/07/31 02:52:04;;;;;;;204.45;186.23;;;19.50;80.70;;;;;;5080015;28;20132;-77
2022/07/31 02:54:34;;;;;;;198.70;180.90;;;19.50;81.00;;;;;;5085643;28;20060;-77
2022/07/31 02:57:02;;;;;;;263.48;239.57;;;19.50;81.20;;;;;;5082479;28;20069;-77
2022/07/31 02:59:29;;;;;;;193.88;176.48;;;19.50;81.10;;;;;;5073176;28;20045;-77
2022/07/31 03:01:59;;;;;;;213.98;194.27;;;19.50;81.10;;;;;;5060778;28;20109;-77
2022/07/31 03:04:29;;;;;;;235.48;214.07;;;19.50;81.30;;;;;;5069833;28;20045;-77
2022/07/31 03:06:56;;;;;;;262.70;238.93;;;19.50;81.20;;;;;;5068224;28;20903;-77
2022/07/31 03:09:23;;;;;;;237.68;216.20;;;19.50;81.20;;;;;;5062054;28;20048;-77
2022/07/31 03:12:02;;;;;;;254.40;231.57;;;19.50;81.20;;;;;;5082696;28;20045;-77
2022/07/31 03:14:30;;;;;;;239.30;217.90;;;19.50;81.20;;;;;;5065606;28;20048;-77
2022/07/31 03:16:58;;;;;;;198.95;181.07;;;19.40;81.20;;;;;;5075456;28;20169;-77
2022/07/31 03:19:27;;;;;;;251.63;229.00;;;19.40;81.50;;;;;;5054631;28;20971;-77
2022/07/31 03:21:55;;;;;;;180.30;164.27;;;19.40;81.70;;;;;;5067287;28;20049;-77
2022/07/31 03:24:23;;;;;;;255.57;232.77;;;19.40;81.70;;;;;;5066581;28;20083;-77
2022/07/31 03:26:50;;;;;;;275.65;250.13;;;19.30;81.80;;;;;;5069946;28;20091;-77
2022/07/31 03:29:18;;;;;;;199.27;181.50;;;19.30;82.10;;;;;;5064803;28;20050;-77
2022/07/31 03:31:45;;;;;;;199.38;181.07;;;19.30;82.20;;;;;;5067785;28;20049;-77
2022/07/31 03:34:12;;;;;;;194.90;177.02;;;19.40;82.10;;;;;;5090410;28;20048;-77
2022/07/31 03:36:40;;;;;;;210.80;191.77;;;19.30;81.90;;;;;;5067537;28;20767;-77
2022/07/31 03:39:07;;;;;;;199.80;181.70;;;19.30;82.00;;;;;;5079027;28;20076;-77
2022/07/31 03:41:41;;;;;;;;;;;19.30;82.10;;;;;;5065623;28;20479;-77
2022/07/31 03:44:10;;;;;;;190.30;172.13;;;19.20;81.30;;;;;;5065100;28;19999;-77
2022/07/31 03:46:39;;;;;;;213.45;193.40;;;19.20;82.40;;;;;;5095840;28;20123;-77
2022/07/31 03:49:07;;;;;;;205.88;186.77;;;19.20;82.70;;;;;;5084652;28;20059;-77
2022/07/31 03:51:34;;;;;;;175.15;159.13;;;19.20;82.80;;;;;;5084679;28;20564;-77
2022/07/31 03:54:02;;;;;;;191.70;174.07;;;19.20;82.90;;;;;;5074932;28;20060;-77
2022/07/31 03:57:05;;;;;;;;;;;19.20;83.10;;;;;;5075121;28;20083;-77
2022/07/31 03:59:34;;;;;;;171.23;155.05;;;19.20;81.00;;;;;;5086460;28;19929;-77
2022/07/31 04:02:06;;;;;;;209.30;189.80;;;19.20;82.80;;;;;;5066746;28;20474;-77
2022/07/31 04:04:39;;;;;;;243.38;220.88;;;19.20;83.00;;;;;;5068478;28;20124;-77
2022/07/31 04:07:06;;;;;;;223.20;202.93;;;19.20;83.30;;;;;;5072770;28;20055;-77
2022/07/31 04:09:33;;;;;;;209.27;190.18;;;19.20;83.60;;;;;;5063667;28;20779;-77
2022/07/31 04:12:00;;;;;;;253.73;230.55;;;19.20;83.50;;;;;;5071778;28;20052;-77
2022/07/31 04:14:27;;;;;;;205.75;186.80;;;19.20;83.30;;;;;;5070848;28;20041;-77
2022/07/31 04:16:54;;;;;;;206.18;187.52;;;19.20;83.40;;;;;;5062601;28;20047;-77
2022/07/31 04:19:24;;;;;;;275.52;250.27;;;19.20;83.30;;;;;;5056588;28;20875;-77
2022/07/31 04:21:51;;;;;;;184.20;167.48;;;19.20;83.90;;;;;;5082376;28;20434;-77
2022/07/31 04:24:20;;;;;;;193.48;175.88;;;19.20;84.30;;;;;;5071403;28;20041;-77
2022/07/31 04:26:56;;;;;;;204.40;185.88;;;19.20;84.70;;;;;;5067466;28;20498;-77
2022/07/31 04:29:28;;;;;;;198.35;180.63;;;19.20;84.90;;;;;;5074638;28;20047;-77
2022/07/31 04:31:55;;;;;;;196.52;178.77;;;19.20;85.30;;;;;;5067816;28;20102;-77
2022/07/31 04:34:30;;;;;;;;;;;19.20;85.40;;;;;;5064587;28;20139;-77
2022/07/31 04:36:57;;;;;;;244.90;221.80;;;19.20;82.20;;;;;;5077720;28;20401;-77
2022/07/31 04:39:24;;;;;;;255.40;231.70;;;19.20;85.10;;;;;;5081935;28;20049;-76
2022/07/31 04:41:51;;;;;;;232.43;210.85;;;19.20;85.40;;;;;;5070343;28;20131;-78
2022/07/31 04:44:19;;;;;;;213.68;193.82;;;19.20;85.80;;;;;;5093397;28;20053;-77
2022/07/31 04:46:59;;;;;;;227.57;206.93;;;19.20;85.80;;;;;;5080554;28;20051;-77
2022/07/31 04:49:26;;;;;;;263.88;239.98;;;19.20;85.70;;;;;;5081312;28;20083;-77
2022/07/31 04:51:54;;;;;;;211.25;191.85;;;19.20;86.10;;;;;;5092435;28;20079;-77
2022/07/31 04:54:22;;;;;;;240.20;218.30;;;19.20;86.20;;;;;;5070017;28;20490;-77
2022/07/31 04:56:50;;;;;;;288.08;262.00;;;19.20;86.30;;;;;;5076414;28;20102;-77
2022/07/31 04:59:20;;;;;;;247.50;224.77;;;19.20;86.30;;;;;;5101702;28;20054;-77
2022/07/31 05:01:48;;;;;;;261.55;237.75;;;19.20;86.60;;;;;;5075014;28;20064;-77
2022/07/31 05:04:18;;;;;;;257.83;234.13;;;19.20;86.80;;;;;;5075651;28;20045;-76
2022/07/31 05:06:48;;;;;;;218.35;198.63;;;19.20;87.40;;;;;;5056352;28;20558;-77
2022/07/31 05:09:18;;;;;;;241.02;219.02;;;19.20;87.90;;;;;;5072008;28;20099;-77
2022/07/31 05:11:47;;;;;;;351.48;319.63;;;19.20;88.10;;;;;;5069605;28;20558;-77
2022/07/31 05:14:16;;;;;;;231.85;210.55;;;19.20;87.90;;;;;;5072257;28;20076;-75
2022/07/31 05:16:44;;;;;;;299.92;273.17;;;19.20;88.00;;;;;;5082994;28;20055;-76
2022/07/31 05:19:11;;;;;;;348.88;317.60;;;19.30;88.30;;;;;;5073341;28;20053;-77
2022/07/31 05:21:45;;;;;;;242.57;220.65;;;19.30;88.30;;;;;;5089129;28;20041;-77
2022/07/31 05:24:28;;;;;;;348.73;317.73;;;19.30;88.50;;;;;;5072604;28;20053;-77
2022/07/31 05:27:01;;;;;;;266.13;241.98;;;19.20;88.30;;;;;;5089242;28;20621;-77
2022/07/31 05:29:29;;;;;;;264.05;240.20;;;19.20;88.50;;;;;;5062956;28;20060;-78
2022/07/31 05:31:56;;;;;;;311.33;283.50;;;19.20;89.00;;;;;;5069799;28;20056;-76
2022/07/31 05:34:23;;;;;;;284.08;258.63;;;19.30;89.20;;;;;;5069686;28;20055;-75
2022/07/31 05:36:50;;;;;;;274.20;249.40;;;19.20;89.30;;;;;;5081119;28;20450;-76
2022/07/31 05:39:17;;;;;;;231.93;211.07;;;19.20;89.20;;;;;;5069590;28;20060;-76
2022/07/31 05:42:14;;;;;;;262.42;238.70;;;19.20;89.10;;;;;;5078988;28;20115;-79
2022/07/31 05:45:08;;;;;;;220.23;200.65;;;19.20;89.20;;;;;;5044229;28;20139;-77
2022/07/31 05:47:36;;;;;;;299.83;273.02;;;19.20;89.60;;;;;;5088900;28;20052;-79
2022/07/31 05:50:04;;;;;;;274.17;249.50;;;19.20;89.70;;;;;;5089762;28;20076;-83
2022/07/31 05:52:31;;;;;;;234.73;213.63;;;19.20;89.80;;;;;;5064516;28;20053;-79
2022/07/31 05:55:36;;;;;;;299.50;271.98;;;19.20;89.90;;;;;;5038910;28;20050;-82
2022/07/31 05:58:21;;;;;;;157.02;143.07;;;19.20;90.00;;;;;;4999382;28;20120;-80
2022/07/31 06:00:49;;;;;;;217.82;198.13;;;19.20;90.10;;;;;;5054009;28;20450;-77
2022/07/31 06:03:22;;;;;;;260.05;236.32;;;19.10;90.10;;;;;;5078412;28;20052;-79
2022/07/31 06:06:03;;;;;;;263.40;239.35;;;19.10;90.10;;;;;;5060975;28;20041;-76
2022/07/31 06:08:32;;;;;;;321.77;293.00;;;19.10;90.20;;;;;;5080079;28;20045;-75
2022/07/31 06:10:59;;;;;;;228.38;207.13;;;19.20;90.20;;;;;;5062885;28;20045;-75
2022/07/31 06:13:30;;;;;;;245.85;223.18;;;19.10;90.30;;;;;;5076443;28;20534;-79
2022/07/31 06:16:13;;;;;;;260.92;236.82;;;19.20;90.40;;;;;;5066221;28;20045;-75
2022/07/31 06:18:41;;;;;;;257.20;233.93;;;19.20;90.70;;;;;;5062832;28;20106;-78
2022/07/31 06:21:08;;;;;;;245.23;222.77;;;19.20;90.80;;;;;;5093062;28;20048;-75
2022/07/31 06:23:35;;;;;;;220.43;200.63;;;19.20;90.90;;;;;;5060913;28;20049;-79
2022/07/31 06:26:14;;;;;;;311.90;283.83;;;19.20;91.00;;;;;;5083262;28;20495;-79
2022/07/31 06:28:42;;;;;;;260.60;236.90;;;19.20;91.10;;;;;;5075214;28;20045;-74
2022/07/31 06:31:16;;;;;;;309.88;282.35;;;19.20;91.20;;;;;;5088217;28;20055;-77
2022/07/31 06:33:43;;;;;;;272.67;248.40;;;19.20;91.30;;;;;;5070245;28;20057;-77
2022/07/31 06:36:10;;;;;;;209.43;191.10;;;19.30;91.30;;;;;;5070909;28;20139;-76
2022/07/31 06:38:40;;;;;;;320.10;291.40;;;19.30;91.30;;;;;;5055030;28;20049;-77
2022/07/31 06:41:45;;;;;;;325.05;295.77;;;19.30;91.40;;;;;;5078877;28;20075;-76
2022/07/31 06:44:46;;;;;;;304.67;276.92;;;19.30;91.50;;;;;;5069848;28;20136;-76
2022/07/31 06:47:32;;;;;;;328.88;299.42;;;19.30;91.60;;;;;;5078700;28;20045;-77
2022/07/31 06:50:17;;;;;;;314.98;286.67;;;19.30;91.60;;;;;;5085767;28;20748;-74
2022/07/31 06:53:16;;;;;;;305.67;277.77;;;19.40;91.60;;;;;;5083006;28;20076;-74
2022/07/31 06:55:43;;;;;;;310.80;282.63;;;19.40;91.60;;;;;;5071070;28;20075;-73
2022/07/31 06:58:11;;;;;;;295.38;268.58;;;19.40;91.50;;;;;;5062003;28;20115;-75
2022/07/31 07:00:39;;;;;;;282.05;256.40;;;19.50;91.60;;;;;;5084637;28;20053;-72
2022/07/31 07:03:06;;;;;;;307.08;279.48;;;19.50;91.50;;;;;;5072156;28;20076;-74
2022/07/31 07:05:33;;;;;;;321.50;292.58;;;19.50;91.50;;;;;;5086090;28;20055;-74
2022/07/31 07:08:01;;;;;;;321.08;292.20;;;19.60;91.40;;;;;;5069694;28;20044;-76
2022/07/31 07:10:30;;;;;;;307.20;279.60;;;19.60;91.30;;;;;;5080030;28;20053;-75
2022/07/31 07:13:00;;;;;;;273.60;249.20;;;19.60;91.20;;;;;;5080493;28;20136;-70
2022/07/31 07:15:31;;;;;;;250.43;227.75;;;19.70;91.20;;;;;;5085814;28;20581;-72
2022/07/31 07:18:00;;;;;;;248.57;225.82;;;19.60;91.00;;;;;;5061955;28;20052;-74
2022/07/31 07:20:47;;;;;;;236.25;214.63;;;19.60;91.00;;;;;;5078162;28;20132;-73
2022/07/31 07:23:14;;;;;;;242.68;220.98;;;19.70;91.00;;;;;;5063804;28;20056;-83
2022/07/31 07:26:01;;;;;;;238.35;216.70;;;19.70;91.10;;;;;;5068658;28;20049;-80
2022/07/31 07:28:28;;;;;;;238.93;216.82;;;19.70;91.10;;;;;;5076042;28;20052;-76
2022/07/31 07:30:56;;;;;;;230.88;210.00;;;19.80;91.10;;;;;;5068955;28;20045;-73
2022/07/31 07:33:24;;;;;;;212.38;193.18;;;19.80;90.90;;;;;;5071171;28;20041;-74
2022/07/31 07:35:52;;;;;;;236.98;214.77;;;19.80;91.00;;;;;;5071409;28;20049;-73
2022/07/31 07:38:19;;;;;;;238.43;217.02;;;19.80;91.00;;;;;;5072303;28;20067;-72
2022/07/31 07:40:46;;;;;;;228.07;207.23;;;19.90;91.10;;;;;;5061247;28;20049;-71
2022/07/31 07:43:13;;;;;;;260.67;237.32;;;19.90;91.20;;;;;;5069559;28;20076;-71
2022/07/31 07:45:40;;;;;;;247.05;224.80;;;19.90;91.30;;;;;;5061713;28;20060;-70
2022/07/31 07:48:07;;;;;;;245.32;223.05;;;20.00;91.20;;;;;;5080926;28;20057;-71
2022/07/31 07:51:01;;;;;;;247.45;224.65;;;20.00;91.20;;;;;;5086941;28;20045;-72
2022/07/31 07:53:31;;;;;;;234.25;212.90;;;20.10;91.30;;;;;;5066281;28;20088;-72
2022/07/31 07:56:27;;;;;;;238.10;216.50;;;20.10;91.50;;;;;;5083348;28;20500;-70
2022/07/31 07:59:22;;;;;;;239.32;216.98;;;20.20;91.50;;;;;;5069861;28;20839;-72
2022/07/31 08:02:22;;;;;;;241.00;218.48;;;20.20;91.60;;;;;;5084864;28;20182;-72
2022/07/31 08:04:49;;;;;;;245.40;223.10;;;20.20;91.70;;;;;;5086915;28;20051;-72
2022/07/31 08:07:26;;;;;;;246.23;224.13;;;20.30;91.80;;;;;;5065268;28;20502;-72
2022/07/31 08:09:53;;;;;;;245.95;223.80;;;20.30;91.90;;;;;;5075600;28;20056;-73
2022/07/31 08:12:44;;;;;;;226.60;205.40;;;20.30;91.90;;;;;;5082836;28;20087;-72
2022/07/31 08:15:31;;;;;;;227.23;206.43;;;20.40;91.90;;;;;;5076952;28;20048;-72
2022/07/31 08:18:12;;;;;;;179.70;163.70;;;20.40;91.90;;;;;;5064135;28;20167;-73
2022/07/31 08:20:39;;;;;;;282.05;256.63;;;20.40;92.10;;;;;;5081297;28;20850;-72
2022/07/31 08:23:08;;;;;;;266.65;241.85;;;20.50;92.20;;;;;;5087444;28;20509;-72
2022/07/31 08:25:35;;;;;;;256.40;233.52;;;20.50;92.20;;;;;;5072721;28;20044;-72
2022/07/31 08:28:04;;;;;;;263.80;240.25;;;20.60;92.20;;;;;;5065090;28;20573;-72
2022/07/31 08:30:31;;;;;;;248.98;226.85;;;20.60;92.10;;;;;;5061289;28;20052;-72
2022/07/31 08:32:59;;;;;;;247.20;224.82;;;20.60;92.20;;;;;;5083615;28;20044;-72
2022/07/31 08:35:34;;;;;;;245.38;223.88;;;20.70;92.30;;;;;;5072862;28;20047;-73
2022/07/31 08:38:01;;;;;;;242.85;221.32;;;20.70;92.40;;;;;;5064923;28;20605;-72
2022/07/31 08:40:30;;;;;;;266.38;243.25;;;20.70;92.20;;;;;;5061139;28;20049;-71
2022/07/31 08:42:57;;;;;;;245.43;223.68;;;20.80;92.10;;;;;;5063714;28;20059;-72
2022/07/31 08:45:25;;;;;;;249.88;227.75;;;20.80;91.90;;;;;;5080737;28;20510;-71
2022/07/31 08:48:17;;;;;;;238.77;216.95;;;20.80;92.00;;;;;;5068556;28;20057;-72
2022/07/31 08:50:48;;;;;;;252.23;229.23;;;20.80;92.30;;;;;;5090302;28;20048;-72
2022/07/31 08:53:37;;;;;;;250.80;228.35;;;20.80;92.40;;;;;;5074866;28;20501;-72
2022/07/31 08:56:11;;;;;;;261.50;237.90;;;20.80;92.60;;;;;;5080976;28;20144;-72
2022/07/31 08:58:39;;;;;;;197.27;179.75;;;20.90;92.80;;;;;;5090855;28;20057;-72
2022/07/31 09:01:06;;;;;;;266.40;242.50;;;20.90;93.00;;;;;;5065819;28;20481;-72
2022/07/31 09:03:34;;;;;;;241.35;219.93;;;20.90;93.10;;;;;;5066572;28;20044;-72
2022/07/31 09:06:05;;;;;;;267.58;244.10;;;20.90;93.30;;;;;;5065474;28;20057;-72
2022/07/31 09:08:33;;;;;;;255.70;233.10;;;21.00;93.40;;;;;;5066121;28;20098;-73
2022/07/31 09:11:04;;;;;;;209.27;190.57;;;21.00;93.60;;;;;;5064293;28;20049;-73
2022/07/31 09:13:37;;;;;;;199.00;181.57;;;21.00;93.90;;;;;;5082909;28;20131;-72
2022/07/31 09:16:21;;;;;;;252.70;230.00;;;21.00;94.00;;;;;;5088434;28;20170;-72
2022/07/31 09:18:55;;;;;;;234.65;213.80;;;20.90;94.10;;;;;;5091885;28;20060;-72
2022/07/31 09:21:22;;;;;;;236.13;214.88;;;21.00;94.30;;;;;;5092465;28;20497;-72
2022/07/31 09:23:50;;;;;;;247.57;225.27;;;20.90;94.30;;;;;;5074934;28;20063;-72
2022/07/31 09:26:17;;;;;;;248.30;226.30;;;20.90;94.50;;;;;;5091733;28;20040;-73
2022/07/31 09:28:47;;;;;;;247.60;225.65;;;20.90;94.60;;;;;;5086609;28;20052;-73
2022/07/31 09:31:14;;;;;;;233.18;212.40;;;21.00;94.70;;;;;;5072003;28;20069;-72
2022/07/31 09:34:05;;;;;;;231.43;210.82;;;20.90;94.80;;;;;;5069854;28;20203;-73
2022/07/31 09:36:41;;;;;;;253.20;230.82;;;20.90;95.00;;;;;;5071585;28;20079;-74
2022/07/31 09:39:30;;;;;;;223.20;203.30;;;20.90;95.10;;;;;;5070683;28;20166;-75
2022/07/31 09:42:16;;;;;;;220.88;201.00;;;20.90;95.30;;;;;;5071768;28;20056;-75
2022/07/31 09:45:17;;;;;;;222.82;202.73;;;20.90;95.50;;;;;;5072810;28;20075;-76
2022/07/31 09:48:04;;;;;;;221.40;200.98;;;20.90;95.60;;;;;;5073245;28;20052;-76
2022/07/31 09:50:32;;;;;;;217.77;198.32;;;20.90;95.80;;;;;;5054971;28;20071;-78
2022/07/31 09:53:00;;;;;;;238.15;217.43;;;20.90;96.00;;;;;;5070927;28;20061;-77
2022/07/31 09:55:30;;;;;;;235.45;214.63;;;20.80;96.10;;;;;;5060160;28;20607;-77
2022/07/31 09:58:00;;;;;;;243.52;222.18;;;20.90;96.20;;;;;;5061903;28;20049;-76
2022/07/31 10:00:34;;;;;;;242.23;220.55;;;20.90;96.40;;;;;;5064713;28;20132;-75
2022/07/31 10:03:02;;;;;;;238.63;217.35;;;20.80;96.40;;;;;;5090473;28;20044;-75
2022/07/31 10:05:30;;;;;;;244.48;223.18;;;20.80;96.50;;;;;;5078978;28;20538;-75
2022/07/31 10:08:01;;;;;;;249.02;227.02;;;20.80;96.80;;;;;;5061126;28;20049;-75
2022/07/31 10:10:58;;;;;;;243.40;221.68;;;20.90;96.70;;;;;;5066240;28;20057;-76
2022/07/31 10:13:36;;;;;;;250.20;228.00;;;20.80;96.60;;;;;;5074557;28;20132;-75
2022/07/31 10:16:06;;;;;;;252.68;230.30;;;20.80;96.70;;;;;;5072166;28;20202;-75
2022/07/31 10:18:57;;;;;;;256.35;233.68;;;20.80;96.80;;;;;;5073171;28;20518;-75
2022/07/31 10:21:48;;;;;;;296.05;270.08;;;20.80;96.90;;;;;;5062372;28;20051;-75
2022/07/31 10:24:23;;;;;;;279.15;254.25;;;20.80;96.90;;;;;;5061796;28;20057;-75
2022/07/31 10:26:52;;;;;;;285.15;259.92;;;20.80;97.10;;;;;;5075684;28;20040;-77
2022/07/31 10:29:19;;;;;;;275.65;251.35;;;20.80;97.20;;;;;;5070177;28;20049;-77
2022/07/31 10:31:48;;;;;;;276.92;252.45;;;20.80;97.20;;;;;;5053574;28;20045;-76
2022/07/31 10:34:16;;;;;;;282.40;257.58;;;20.80;97.20;;;;;;5053686;28;20099;-76
2022/07/31 10:37:18;;;;;;;271.13;246.70;;;20.80;97.30;;;;;;5086814;28;20141;-76
2022/07/31 10:40:12;;;;;;;264.92;240.77;;;20.80;97.30;;;;;;5089946;28;20049;-77
2022/07/31 10:42:51;;;;;;;263.13;239.63;;;20.80;97.30;;;;;;5078178;28;20107;-76
2022/07/31 10:45:19;;;;;;;266.30;242.40;;;20.80;97.40;;;;;;5072256;28;20052;-77
2022/07/31 10:48:11;;;;;;;267.80;244.00;;;20.80;97.40;;;;;;5074386;28;20063;-76
2022/07/31 10:51:05;;;;;;;271.88;248.02;;;20.80;97.30;;;;;;5068202;28;20041;-76
2022/07/31 10:53:55;;;;;;;266.70;242.82;;;20.80;97.20;;;;;;5077385;28;20079;-76
2022/07/31 10:56:42;;;;;;;271.30;247.05;;;20.80;97.20;;;;;;5073636;28;20052;-76
2022/07/31 10:59:28;;;;;;;263.73;239.85;;;20.80;97.20;;;;;;5073165;28;20052;-76
2022/07/31 11:02:14;;;;;;;257.20;234.02;;;20.80;97.30;;;;;;5076493;28;20055;-77
2022/07/31 11:04:46;;;;;;;272.75;248.45;;;20.80;97.30;;;;;;5069311;28;20052;-76
2022/07/31 11:07:18;;;;;;;266.63;242.63;;;20.80;97.20;;;;;;5057986;28;20131;-76
2022/07/31 11:10:16;;;;;;;252.25;229.13;;;20.70;97.30;;;;;;5094434;28;20055;-76
2022/07/31 11:13:03;;;;;;;240.90;218.68;;;20.80;97.40;;;;;;5095783;28;20049;-76
2022/07/31 11:16:04;;;;;;;245.13;222.15;;;20.70;97.30;;;;;;5077496;28;20076;-77
2022/07/31 11:19:01;;;;;;;243.13;220.90;;;20.80;97.40;;;;;;5077396;28;20055;-77
2022/07/31 11:21:35;;;;;;;244.32;222.13;;;20.80;97.40;;;;;;5095647;28;20111;-77
2022/07/31 11:24:13;;;;;;;251.77;228.98;;;20.80;97.50;;;;;;5094656;28;20044;-77
2022/07/31 11:26:47;;;;;;;260.67;237.15;;;20.80;97.60;;;;;;5095447;28;20055;-77
2022/07/31 11:29:14;;;;;;;266.08;242.25;;;20.80;97.60;;;;;;5096065;28;20049;-77
2022/07/31 11:31:41;;;;;;;257.70;234.55;;;20.80;97.70;;;;;;5095681;28;20135;-78
2022/07/31 11:34:08;;;;;;;245.02;222.80;;;20.70;97.70;;;;;;5095519;28;20955;-77
2022/07/31 11:36:36;;;;;;;263.90;240.30;;;20.70;97.70;;;;;;5094218;28;20163;-77
2022/07/31 11:39:04;;;;;;;257.50;234.13;;;20.60;97.80;;;;;;5095555;28;20045;-77
2022/07/31 11:41:31;;;;;;;245.63;222.93;;;20.60;97.90;;;;;;5104552;28;20052;-77
2022/07/31 11:43:58;;;;;;;245.13;222.40;;;20.50;97.90;;;;;;5115823;28;20121;-77
2022/07/31 11:46:28;;;;;;;246.77;224.13;;;20.40;98.00;;;;;;5097171;28;20055;-77
2022/07/31 11:48:56;;;;;;;253.82;230.88;;;20.40;98.00;;;;;;5115732;28;20056;-77
2022/07/31 11:51:24;;;;;;;256.25;233.20;;;20.30;98.00;;;;;;5114923;28;20048;-77
2022/07/31 11:53:54;;;;;;;259.80;236.63;;;20.30;98.20;;;;;;5115976;27;20531;-77
2022/07/31 11:56:22;;;;;;;256.38;233.27;;;20.20;98.20;;;;;;5113832;28;20078;-77
2022/07/31 11:58:50;;;;;;;255.15;232.18;;;20.20;98.40;;;;;;5074698;28;20067;-77
2022/07/31 12:01:18;;;;;;;253.18;230.27;;;20.20;98.50;;;;;;5082097;28;21037;-77
2022/07/31 12:03:49;;;;;;;256.88;233.60;;;20.10;98.50;;;;;;5090904;28;20413;-77
2022/07/31 12:06:19;;;;;;;247.05;224.50;;;20.10;98.60;;;;;;5093928;28;20052;-77
2022/07/31 12:08:47;;;;;;;245.75;223.38;;;20.10;98.80;;;;;;5082580;28;20178;-77
2022/07/31 12:11:17;;;;;;;251.15;228.13;;;20.10;98.90;;;;;;5072831;28;20130;-77
2022/07/31 12:13:46;;;;;;;260.02;236.30;;;20.10;99.00;;;;;;5080189;28;20091;-76
2022/07/31 12:16:13;;;;;;;262.83;238.90;;;20.00;99.00;;;;;;5080228;28;20841;-76
2022/07/31 12:18:47;;;;;;;252.68;229.82;;;20.00;99.10;;;;;;5073369;28;20433;-82
2022/07/31 12:21:15;;;;;;;251.00;227.45;;;20.00;99.00;;;;;;5084256;28;20053;-77
2022/07/31 12:23:45;;;;;;;251.38;228.30;;;20.00;99.10;;;;;;5088149;28;20050;-76
2022/07/31 12:26:15;;;;;;;260.70;236.85;;;20.00;99.20;;;;;;5085493;28;20053;-78
2022/07/31 12:28:44;;;;;;;253.30;229.90;;;20.00;99.20;;;;;;5090579;28;20049;-77
2022/07/31 12:31:11;;;;;;;257.08;233.70;;;20.00;99.30;;;;;;5094135;28;20098;-76
2022/07/31 12:33:42;;;;;;;253.15;230.27;;;20.00;99.30;;;;;;5082491;28;20048;-78
2022/07/31 12:36:14;;;;;;;266.45;242.43;;;20.00;99.50;;;;;;5093010;28;20802;-74